»·PEaware :: SWA783 KLAS-KRNO

SWA783 :: KLAS-KRNO

FLIGHT INFORMATION

Flight Status: Arrived
Operator:
Southwest Airlines
More flights by this operator :: More flights under this callsign
Pilot: Ben F. (2808)
Aircraft: BOEING 737-300
(B733)
More flights by this aircraft type
Origin: KLAS McCarran Intl
United States
Destination: KRNO Reno/Tahoe Intl
United States
More flights between these airports :: More routes between these airports
Route: SHEAD1 KENNO RUSME2
File this flight plan on PilotEdge
Remarks:
Altitude:
(Current/Filed)
34,000ft
Speed:
(Current/Filed)
442kts
Departed: 06-Oct-18 10:51 AM
Arrived: 06-Oct-18 11:56 AM
Distance/Time
Traveled:
300nm/1:05
Distance/Time
To Go:
Arrived

Flight Plot

Page will automatically refresh every two minutes.

Flight plan parsing failed; only flown route is shown


Map Options




Map Legend


Flown Route
Filed Route
Departure Airport
Arrival Airport
Navaid (VOR, NDB)
Fix

Horizontal Profiles

Position Reports

Time Latitude Longitude Heading Altitude Ground
Speed
06-Oct-18 10:26 36.079781 -115.146273 342 2148ft 0kts
06-Oct-18 10:27 36.079781 -115.146273 342 2148ft 0kts
06-Oct-18 10:28 36.079781 -115.146273 342 2148ft 0kts
06-Oct-18 10:29 36.079781 -115.146273 342 2148ft 0kts
06-Oct-18 10:30 36.079781 -115.146273 342 2148ft 0kts
06-Oct-18 10:31 36.079781 -115.146273 342 2148ft 0kts
06-Oct-18 10:32 36.079781 -115.146273 342 2148ft 0kts
06-Oct-18 10:33 36.079781 -115.146273 342 2148ft 0kts
06-Oct-18 10:34 36.079781 -115.146273 342 2148ft 0kts
06-Oct-18 10:35 36.079781 -115.146273 342 2148ft 0kts
06-Oct-18 10:36 36.079781 -115.146273 342 2148ft 0kts
06-Oct-18 10:37 36.079781 -115.146273 342 2148ft 0kts
06-Oct-18 10:38 36.079781 -115.146273 342 2148ft 0kts
06-Oct-18 10:39 36.079781 -115.146273 342 2148ft 0kts
06-Oct-18 10:40 36.079781 -115.146273 342 2148ft 0kts
06-Oct-18 10:41 36.079708 -115.146229 318 2148ft 2kts
06-Oct-18 10:42 36.079279 -115.145784 278 2148ft 2kts
06-Oct-18 10:43 36.079302 -115.145107 266 2148ft 2kts
06-Oct-18 10:44 36.079572 -115.144876 179 2148ft 0kts
06-Oct-18 10:45 36.079572 -115.144876 179 2148ft 0kts
06-Oct-18 10:46 36.079038 -115.144895 182 2148ft 4kts
06-Oct-18 10:47 36.078972 -115.144897 181 2148ft 0kts
06-Oct-18 10:48 36.078806 -115.144900 180 2148ft 8kts
06-Oct-18 10:49 36.077893 -115.148996 274 2148ft 18kts
06-Oct-18 10:50 36.078025 -115.156657 270 2148ft 23kts
06-Oct-18 10:51 36.077402 -115.163467 204 2148ft 0kts
06-Oct-18 10:52 36.077305 -115.163520 203 2148ft 4kts
06-Oct-18 10:53 36.076395 -115.143517 88 2149ft 155kts
06-Oct-18 10:54 36.075465 -115.079007 84 3491ft 217kts
06-Oct-18 10:55 36.076068 -114.993100 88 5178ft 279kts
06-Oct-18 10:56 36.024834 -114.929185 161 7915ft 292kts
06-Oct-18 10:57 35.947716 -114.921465 211 10319ft 305kts
06-Oct-18 10:58 35.883057 -114.997806 224 12180ft 343kts
06-Oct-18 10:59 35.825717 -115.090657 258 14744ft 355kts
06-Oct-18 11:00 35.833264 -115.213447 274 17139ft 367kts
06-Oct-18 11:01 35.844096 -115.339296 274 18846ft 374kts
06-Oct-18 11:02 35.854955 -115.467668 274 19625ft 378kts
06-Oct-18 11:03 35.865698 -115.596378 274 21785ft 382kts
06-Oct-18 11:04 35.876123 -115.722996 274 23576ft 389kts
06-Oct-18 11:05 35.886959 -115.856316 274 25299ft 395kts
06-Oct-18 11:06 35.907506 -115.988614 303 26779ft 409kts
06-Oct-18 11:07 36.002568 -116.071842 319 28222ft 422kts
06-Oct-18 11:08 36.094000 -116.156603 317 30317ft 406kts
06-Oct-18 11:09 36.180121 -116.237203 317 31820ft 400kts
06-Oct-18 11:10 36.267255 -116.319233 317 33242ft 392kts
06-Oct-18 11:11 36.353803 -116.400993 317 33919ft 396kts
06-Oct-18 11:12 36.441063 -116.483618 317 33907ft 395kts
06-Oct-18 11:13 36.528344 -116.566523 317 33913ft 395kts
06-Oct-18 11:14 36.615530 -116.649578 317 33913ft 395kts
06-Oct-18 11:15 36.700441 -116.730943 317 33913ft 395kts
06-Oct-18 11:16 36.787258 -116.814138 317 33912ft 395kts
06-Oct-18 11:17 36.874060 -116.897550 317 33914ft 395kts
06-Oct-18 11:18 36.960443 -116.980794 317 33912ft 391kts
06-Oct-18 11:19 37.046453 -117.063940 318 33913ft 394kts
06-Oct-18 11:20 37.130559 -117.145321 319 33898ft 395kts
06-Oct-18 11:21 37.217303 -117.229505 319 33913ft 395kts
06-Oct-18 11:22 37.299907 -117.310238 317 33912ft 394kts
06-Oct-18 11:23 37.382600 -117.400141 317 33939ft 394kts
06-Oct-18 11:24 37.466279 -117.489728 317 33940ft 396kts
06-Oct-18 11:25 37.528274 -117.573300 307 33946ft 394kts
06-Oct-18 11:26 37.605147 -117.696944 306 33945ft 394kts
06-Oct-18 11:27 37.672605 -117.805169 307 33925ft 395kts
06-Oct-18 11:28 37.729234 -117.896206 307 33912ft 395kts
06-Oct-18 11:29 37.807932 -118.023256 307 33912ft 395kts
06-Oct-18 11:30 37.864298 -118.114367 307 33912ft 395kts
06-Oct-18 11:31 37.943109 -118.242159 307 33917ft 395kts
06-Oct-18 11:32 37.999351 -118.333657 307 33946ft 394kts
06-Oct-18 11:33 38.066187 -118.442729 307 33988ft 393kts
06-Oct-18 11:34 38.129990 -118.546892 307 33989ft 393kts
06-Oct-18 11:35 38.194431 -118.652558 306 33995ft 393kts
06-Oct-18 11:36 38.258320 -118.758097 306 33996ft 393kts
06-Oct-18 11:37 38.324095 -118.866849 308 32264ft 390kts
06-Oct-18 11:38 38.389743 -118.975751 309 29293ft 384kts
06-Oct-18 11:39 38.453113 -119.081231 310 26833ft 364kts
06-Oct-18 11:40 38.512939 -119.183619 306 24891ft 363kts
06-Oct-18 11:41 38.566427 -119.288504 306 22937ft 357kts
06-Oct-18 11:42 38.619599 -119.391475 306 21004ft 340kts
06-Oct-18 11:43 38.671863 -119.492844 306 19127ft 333kts
06-Oct-18 11:44 38.722843 -119.592020 305 17249ft 331kts
06-Oct-18 11:45 38.770803 -119.685670 305 15959ft 315kts
06-Oct-18 11:46 38.819054 -119.763210 331 15839ft 286kts
06-Oct-18 11:47 38.898603 -119.770857 357 13916ft 290kts
06-Oct-18 11:48 38.971789 -119.770625 358 12947ft 240kts
06-Oct-18 11:49 39.037539 -119.770467 359 12983ft 240kts
06-Oct-18 11:50 39.101651 -119.770314 359 12976ft 239kts
06-Oct-18 11:51 39.165318 -119.770192 359 11963ft 237kts
06-Oct-18 11:52 39.229400 -119.770067 359 10467ft 228kts
06-Oct-18 11:53 39.291118 -119.769997 359 8966ft 218kts
06-Oct-18 11:54 39.349313 -119.769788 1 7583ft 192kts
06-Oct-18 11:55 39.398212 -119.769530 0 6452ft 169kts
06-Oct-18 11:56 39.439241 -119.769464 1 5512ft 136kts
06-Oct-18 11:57 39.476899 -119.769377 2 4680ft 138kts
06-Oct-18 11:58 39.502975 -119.769680 329 4422ft 14kts
06-Oct-18 11:59 39.503781 -119.771377 267 4422ft 10kts
06-Oct-18 12:00 39.504454 -119.773253 0 4422ft 0kts

Navigation Log

Ident Type
Flight plan parsing failed, navigation log unavailable